sensor_id;sensor_type;location;lat;lon;timestamp;pressure;altitude;pressure_sealevel;temperature;humidity
67099;BME280;54288;53.046;5.668;2023-05-19T00:01:11;103044.28;;;7.62;100.00
67099;BME280;54288;53.046;5.668;2023-05-19T00:03:50;103048.53;;;7.58;100.00
67099;BME280;54288;53.046;5.668;2023-05-19T00:06:24;103040.75;;;7.60;100.00
67099;BME280;54288;53.046;5.668;2023-05-19T00:08:56;103033.75;;;7.57;100.00
67099;BME280;54288;53.046;5.668;2023-05-19T00:11:23;103036.34;;;7.57;100.00
67099;BME280;54288;53.046;5.668;2023-05-19T00:13:52;103030.16;;;7.54;100.00
67099;BME280;54288;53.046;5.668;2023-05-19T00:16:18;103024.91;;;7.51;100.00
67099;BME280;54288;53.046;5.668;2023-05-19T00:18:43;103020.47;;;7.48;100.00
67099;BME280;54288;53.046;5.668;2023-05-19T00:21:09;103025.69;;;7.48;100.00
67099;BME280;54288;53.046;5.668;2023-05-19T00:23:35;103029.16;;;7.49;100.00
67099;BME280;54288;53.046;5.668;2023-05-19T00:26:00;103023.91;;;7.47;100.00
67099;BME280;54288;53.046;5.668;2023-05-19T00:28:26;103027.28;;;7.43;100.00
67099;BME280;54288;53.046;5.668;2023-05-19T00:30:52;103021.22;;;7.44;100.00
67099;BME280;54288;53.046;5.668;2023-05-19T00:33:17;103021.97;;;7.40;100.00
67099;BME280;54288;53.046;5.668;2023-05-19T00:35:43;103028.94;;;7.41;100.00
67099;BME280;54288;53.046;5.668;2023-05-19T00:38:09;103021.13;;;7.40;100.00
67099;BME280;54288;53.046;5.668;2023-05-19T00:40:34;103023.75;;;7.41;100.00
67099;BME280;54288;53.046;5.668;2023-05-19T00:43:01;103020.25;;;7.41;100.00
67099;BME280;54288;53.046;5.668;2023-05-19T00:45:28;103018.47;;;7.38;100.00
67099;BME280;54288;53.046;5.668;2023-05-19T00:47:54;103021.91;;;7.37;100.00
67099;BME280;54288;53.046;5.668;2023-05-19T00:50:19;103016.69;;;7.37;100.00
67099;BME280;54288;53.046;5.668;2023-05-19T00:52:45;103021.75;;;7.33;100.00
67099;BME280;54288;53.046;5.668;2023-05-19T00:55:11;103020.06;;;7.33;100.00
67099;BME280;54288;53.046;5.668;2023-05-19T00:57:38;103019.94;;;7.29;100.00
67099;BME280;54288;53.046;5.668;2023-05-19T01:00:04;103015.47;;;7.25;100.00
67099;BME280;54288;53.046;5.668;2023-05-19T01:02:31;103017.97;;;7.20;100.00
67099;BME280;54288;53.046;5.668;2023-05-19T01:04:57;103012.75;;;7.20;100.00
67099;BME280;54288;53.046;5.668;2023-05-19T01:07:24;103012.75;;;7.20;100.00
67099;BME280;54288;53.046;5.668;2023-05-19T01:09:50;103011.09;;;7.24;100.00
67099;BME280;54288;53.046;5.668;2023-05-19T01:12:16;103007.53;;;7.20;100.00
67099;BME280;54288;53.046;5.668;2023-05-19T01:14:43;103012.69;;;7.19;100.00
67099;BME280;54288;53.046;5.668;2023-05-19T01:17:18;103015.22;;;7.16;100.00
67099;BME280;54288;53.046;5.668;2023-05-19T01:28:05;102998.28;;;7.00;100.00
67099;BME280;54288;53.046;5.668;2023-05-19T01:30:39;103007.81;;;7.00;100.00
67099;BME280;54288;53.046;5.668;2023-05-19T01:33:10;103002.63;;;7.01;100.00
67099;BME280;54288;53.046;5.668;2023-05-19T01:35:40;102998.28;;;7.00;100.00
67099;BME280;54288;53.046;5.668;2023-05-19T01:38:10;102998.38;;;7.03;100.00
67099;BME280;54288;53.046;5.668;2023-05-19T01:40:40;102998.28;;;7.00;100.00
67099;BME280;54288;53.046;5.668;2023-05-19T01:43:11;102994.06;;;7.05;100.00
67099;BME280;54288;53.046;5.668;2023-05-19T01:45:39;102994.81;;;7.01;100.00
67099;BME280;54288;53.046;5.668;2023-05-19T01:48:05;102991.06;;;6.92;100.00
67099;BME280;54288;53.046;5.668;2023-05-19T01:50:31;102985.97;;;6.95;100.00
67099;BME280;54288;53.046;5.668;2023-05-19T01:52:59;102988.66;;;6.98;100.00
67099;BME280;54288;53.046;5.668;2023-05-19T01:55:24;102979.06;;;6.97;100.00
67099;BME280;54288;53.046;5.668;2023-05-19T02:00:37;102975.50;;;6.93;100.00
67099;BME280;54288;53.046;5.668;2023-05-19T02:03:14;102976.56;;;7.00;100.00
67099;BME280;54288;53.046;5.668;2023-05-19T02:08:26;102977.53;;;7.03;100.00
67099;BME280;54288;53.046;5.668;2023-05-19T02:11:02;102975.69;;;6.99;100.00
67099;BME280;54288;53.046;5.668;2023-05-19T02:13:36;102969.63;;;7.00;100.00
67099;BME280;54288;53.046;5.668;2023-05-19T02:16:06;102972.38;;;7.06;100.00
67099;BME280;54288;53.046;5.668;2023-05-19T02:18:33;102972.50;;;7.09;100.00
67099;BME280;54288;53.046;5.668;2023-05-19T02:21:00;102972.50;;;7.09;100.00
67099;BME280;54288;53.046;5.668;2023-05-19T02:23:26;102970.84;;;7.13;100.00
67099;BME280;54288;53.046;5.668;2023-05-19T02:25:51;102968.34;;;7.17;100.00
67099;BME280;54288;53.046;5.668;2023-05-19T02:28:17;102969.19;;;7.16;100.00
67099;BME280;54288;53.046;5.668;2023-05-19T02:30:43;102970.09;;;7.17;100.00
67099;BME280;54288;53.046;5.668;2023-05-19T02:33:09;102968.28;;;7.14;100.00
67099;BME280;54288;53.046;5.668;2023-05-19T02:35:36;102961.28;;;7.12;100.00
67099;BME280;54288;53.046;5.668;2023-05-19T02:38:02;102967.28;;;7.09;100.00
67099;BME280;54288;53.046;5.668;2023-05-19T02:40:27;102965.38;;;7.04;100.00
67099;BME280;54288;53.046;5.668;2023-05-19T02:42:53;102969.63;;;7.00;100.00
67099;BME280;54288;53.046;5.668;2023-05-19T02:45:19;102972.16;;;6.99;100.00
67099;BME280;54288;53.046;5.668;2023-05-19T02:47:44;102965.75;;;6.86;100.00
67099;BME280;54288;53.046;5.668;2023-05-19T02:50:10;102967.34;;;6.81;100.00
67099;BME280;54288;53.046;5.668;2023-05-19T02:52:36;102961.81;;;6.71;100.00
67099;BME280;54288;53.046;5.668;2023-05-19T02:55:02;102960.78;;;6.64;100.00
67099;BME280;54288;53.046;5.668;2023-05-19T02:57:28;102962.53;;;6.65;100.00
67099;BME280;54288;53.046;5.668;2023-05-19T02:59:56;102966.81;;;6.63;100.00
67099;BME280;54288;53.046;5.668;2023-05-19T03:02:21;102955.34;;;6.57;100.00
67099;BME280;54288;53.046;5.668;2023-05-19T03:04:47;102959.09;;;6.66;100.00
67099;BME280;54288;53.046;5.668;2023-05-19T03:07:13;102949.63;;;6.70;100.00
67099;BME280;54288;53.046;5.668;2023-05-19T03:09:41;102948.78;;;6.71;100.00
67099;BME280;54288;53.046;5.668;2023-05-19T03:12:06;102943.53;;;6.68;100.00
67099;BME280;54288;53.046;5.668;2023-05-19T03:14:33;102944.41;;;6.68;100.00
67099;BME280;54288;53.046;5.668;2023-05-19T03:16:59;102952.41;;;6.76;100.00
67099;BME280;54288;53.046;5.668;2023-05-19T03:19:25;102955.13;;;6.79;100.00
67099;BME280;54288;53.046;5.668;2023-05-19T03:21:51;102959.44;;;6.78;100.00
67099;BME280;54288;53.046;5.668;2023-05-19T03:24:17;102962.88;;;6.77;100.00
67099;BME280;54288;53.046;5.668;2023-05-19T03:26:43;102960.28;;;6.77;100.00
67099;BME280;54288;53.046;5.668;2023-05-19T03:29:09;102946.97;;;6.67;100.00
67099;BME280;54288;53.046;5.668;2023-05-19T03:31:36;102953.81;;;6.63;100.00
67099;BME280;54288;53.046;5.668;2023-05-19T03:34:02;102958.91;;;6.60;100.00
67099;BME280;54288;53.046;5.668;2023-05-19T03:36:28;102949.41;;;6.61;100.00
67099;BME280;54288;53.046;5.668;2023-05-19T03:38:59;102945.09;;;6.63;100.00
67099;BME280;54288;53.046;5.668;2023-05-19T03:41:25;102944.25;;;6.64;100.00
67099;BME280;54288;53.046;5.668;2023-05-19T03:43:51;102947.69;;;6.63;100.00
67099;BME280;54288;53.046;5.668;2023-05-19T03:46:17;102946.91;;;6.65;100.00
67099;BME280;54288;53.046;5.668;2023-05-19T03:49:09;102949.47;;;6.64;100.00
67099;BME280;54288;53.046;5.668;2023-05-19T03:51:54;102949.63;;;6.68;100.00
67099;BME280;54288;53.046;5.668;2023-05-19T03:54:29;102952.16;;;6.67;100.00
67099;BME280;54288;53.046;5.668;2023-05-19T03:56:56;102952.22;;;6.68;100.00
67099;BME280;54288;53.046;5.668;2023-05-19T03:59:22;102948.63;;;6.65;100.00
67099;BME280;54288;53.046;5.668;2023-05-19T04:01:49;102944.44;;;6.70;100.00
67099;BME280;54288;53.046;5.668;2023-05-19T04:04:15;102942.78;;;6.72;100.00
67099;BME280;54288;53.046;5.668;2023-05-19T04:06:40;102941.97;;;6.74;100.00
67099;BME280;54288;53.046;5.668;2023-05-19T04:09:14;102938.59;;;6.78;100.00
67099;BME280;54288;53.046;5.668;2023-05-19T04:11:41;102943.06;;;6.82;100.00
67099;BME280;54288;53.046;5.668;2023-05-19T04:14:07;102945.00;;;6.89;100.00
67099;BME280;54288;53.046;5.668;2023-05-19T04:16:33;102952.97;;;6.95;100.00
67099;BME280;54288;53.046;5.668;2023-05-19T04:18:59;102948.72;;;6.97;100.00
67099;BME280;54288;53.046;5.668;2023-05-19T04:21:25;102953.13;;;7.01;100.00
67099;BME280;54288;53.046;5.668;2023-05-19T04:23:53;102948.81;;;7.02;100.00
67099;BME280;54288;53.046;5.668;2023-05-19T04:26:19;102953.31;;;7.07;100.00
67099;BME280;54288;53.046;5.668;2023-05-19T04:28:47;102949.06;;;7.11;100.00
67099;BME280;54288;53.046;5.668;2023-05-19T04:31:13;102948.25;;;7.13;100.00
67099;BME280;54288;53.046;5.668;2023-05-19T04:33:40;102948.25;;;7.13;100.00
67099;BME280;54288;53.046;5.668;2023-05-19T04:36:07;102950.13;;;7.17;100.00
67099;BME280;54288;53.046;5.668;2023-05-19T04:38:36;102952.88;;;7.23;100.00
67099;BME280;54288;53.046;5.668;2023-05-19T04:41:05;102955.59;;;7.26;100.00
67099;BME280;54288;53.046;5.668;2023-05-19T04:43:34;102950.59;;;7.34;100.00
67099;BME280;54288;53.046;5.668;2023-05-19T04:46:01;102959.41;;;7.40;100.00
67099;BME280;54288;53.046;5.668;2023-05-19T04:48:31;102954.47;;;7.49;100.00
67099;BME280;54288;53.046;5.668;2023-05-19T04:50:58;102958.97;;;7.56;100.00
67099;BME280;54288;53.046;5.668;2023-05-19T04:53:29;102960.03;;;7.64;100.00
67099;BME280;54288;53.046;5.668;2023-05-19T04:55:56;102966.50;;;7.78;100.00
67099;BME280;54288;53.046;5.668;2023-05-19T04:58:22;102955.44;;;7.88;100.00
67099;BME280;54288;53.046;5.668;2023-05-19T05:00:52;102959.09;;;7.96;100.00
67099;BME280;54288;53.046;5.668;2023-05-19T05:03:21;102964.72;;;8.13;100.00
67099;BME280;54288;53.046;5.668;2023-05-19T05:05:51;102964.22;;;8.27;100.00
67099;BME280;54288;53.046;5.668;2023-05-19T05:08:17;102955.81;;;8.40;100.00
67099;BME280;54288;53.046;5.668;2023-05-19T05:10:50;102966.78;;;8.64;100.00
67099;BME280;54288;53.046;5.668;2023-05-19T05:13:22;102963.00;;;8.90;100.00
67099;BME280;54288;53.046;5.668;2023-05-19T05:15:48;102963.72;;;9.29;100.00
67099;BME280;54288;53.046;5.668;2023-05-19T05:18:17;102956.13;;;9.92;100.00
67099;BME280;54288;53.046;5.668;2023-05-19T05:20:44;102961.13;;;11.00;100.00
67099;BME280;54288;53.046;5.668;2023-05-19T05:23:12;102947.31;;;12.07;100.00
67099;BME280;54288;53.046;5.668;2023-05-19T05:25:43;102953.94;;;13.00;100.00
67099;BME280;54288;53.046;5.668;2023-05-19T05:28:10;102951.44;;;13.59;100.00
67099;BME280;54288;53.046;5.668;2023-05-19T05:30:36;102960.03;;;14.75;98.75
67099;BME280;54288;53.046;5.668;2023-05-19T05:33:04;102959.06;;;14.97;89.30
67099;BME280;54288;53.046;5.668;2023-05-19T05:35:37;102968.91;;;14.62;93.13
67099;BME280;54288;53.046;5.668;2023-05-19T05:38:04;102967.13;;;14.64;92.26
67099;BME280;54288;53.046;5.668;2023-05-19T05:40:31;102963.72;;;13.99;96.70
67099;BME280;54288;53.046;5.668;2023-05-19T05:42:56;102964.59;;;14.10;97.56
67099;BME280;54288;53.046;5.668;2023-05-19T05:45:28;102959.34;;;13.80;96.46
67099;BME280;54288;53.046;5.668;2023-05-19T05:47:54;102965.47;;;13.44;99.79
67099;BME280;54288;53.046;5.668;2023-05-19T05:50:20;102961.94;;;13.57;100.00
67099;BME280;54288;53.046;5.668;2023-05-19T05:52:47;102961.97;;;13.53;100.00
67099;BME280;54288;53.046;5.668;2023-05-19T05:55:15;102959.31;;;14.10;98.53
67099;BME280;54288;53.046;5.668;2023-05-19T05:57:44;102957.56;;;13.55;100.00
67099;BME280;54288;53.046;5.668;2023-05-19T06:00:10;102956.69;;;13.50;100.00
67099;BME280;54288;53.046;5.668;2023-05-19T06:02:50;102956.72;;;13.84;100.00
67099;BME280;54288;53.046;5.668;2023-05-19T06:05:17;102957.56;;;14.13;100.00
67099;BME280;54288;53.046;5.668;2023-05-19T06:07:44;102962.72;;;14.63;99.46
67099;BME280;54288;53.046;5.668;2023-05-19T06:10:13;102958.97;;;15.16;94.31
67099;BME280;54288;53.046;5.668;2023-05-19T06:28:51;102947.47;;;17.65;80.11
67099;BME280;54288;53.046;5.668;2023-05-19T06:31:17;102959.38;;;17.37;75.74
67099;BME280;54288;53.046;5.668;2023-05-19T06:33:53;102954.97;;;17.39;78.23
67099;BME280;54288;53.046;5.668;2023-05-19T06:36:20;102961.34;;;16.55;78.77
67099;BME280;54288;53.046;5.668;2023-05-19T06:38:46;102949.09;;;16.48;82.06
67099;BME280;54288;53.046;5.668;2023-05-19T06:41:12;102955.66;;;16.88;79.61
67099;BME280;54288;53.046;5.668;2023-05-19T06:43:38;102961.19;;;17.33;76.69
67099;BME280;54288;53.046;5.668;2023-05-19T06:46:03;102962.53;;;17.01;75.61
67099;BME280;54288;53.046;5.668;2023-05-19T06:48:32;102965.66;;;17.87;75.43
67099;BME280;54288;53.046;5.668;2023-05-19T06:50:58;102960.72;;;17.66;74.89
67099;BME280;54288;53.046;5.668;2023-05-19T06:53:25;102966.88;;;18.17;72.19
67099;BME280;54288;53.046;5.668;2023-05-19T06:55:52;102967.22;;;18.49;74.24
67099;BME280;54288;53.046;5.668;2023-05-19T06:58:20;102963.34;;;18.65;70.22
67099;BME280;54288;53.046;5.668;2023-05-19T07:00:46;102970.56;;;18.58;68.80
67099;BME280;54288;53.046;5.668;2023-05-19T07:03:15;102969.47;;;18.68;69.02
67099;BME280;54288;53.046;5.668;2023-05-19T07:05:40;102965.84;;;18.74;65.68
67099;BME280;54288;53.046;5.668;2023-05-19T07:08:06;102961.13;;;17.94;66.14
67099;BME280;54288;53.046;5.668;2023-05-19T07:10:34;102966.56;;;17.86;67.10
67099;BME280;54288;53.046;5.668;2023-05-19T07:13:01;102959.78;;;17.70;68.87
67099;BME280;54288;53.046;5.668;2023-05-19T07:15:31;102962.63;;;17.58;65.32
67099;BME280;54288;53.046;5.668;2023-05-19T07:17:57;102968.59;;;17.10;67.07
67099;BME280;54288;53.046;5.668;2023-05-19T07:20:24;102960.31;;;16.68;66.06
67099;BME280;54288;53.046;5.668;2023-05-19T07:22:49;102964.28;;;17.02;66.81
67099;BME280;54288;53.046;5.668;2023-05-19T07:25:15;102964.44;;;16.93;67.47
67099;BME280;54288;53.046;5.668;2023-05-19T07:27:45;102958.78;;;17.17;63.24
67099;BME280;54288;53.046;5.668;2023-05-19T07:30:11;102960.47;;;16.54;65.01
67099;BME280;54288;53.046;5.668;2023-05-19T07:32:37;102971.63;;;16.83;65.64
67099;BME280;54288;53.046;5.668;2023-05-19T07:35:04;102964.59;;;16.78;63.59
67099;BME280;54288;53.046;5.668;2023-05-19T07:37:30;102961.09;;;17.44;62.98
67099;BME280;54288;53.046;5.668;2023-05-19T07:39:55;102957.13;;;17.69;57.37
67099;BME280;54288;53.046;5.668;2023-05-19T07:42:21;102955.69;;;17.50;61.52
67099;BME280;54288;53.046;5.668;2023-05-19T07:44:46;102957.44;;;17.51;59.00
67099;BME280;54288;53.046;5.668;2023-05-19T07:47:12;102957.88;;;17.77;57.67
67099;BME280;54288;53.046;5.668;2023-05-19T07:49:38;102956.59;;;17.49;58.81
67099;BME280;54288;53.046;5.668;2023-05-19T07:52:03;102950.31;;;17.54;55.26
67099;BME280;54288;53.046;5.668;2023-05-19T07:54:29;102954.97;;;17.40;57.72
67099;BME280;54288;53.046;5.668;2023-05-19T07:56:55;102960.81;;;17.59;55.03
67099;BME280;54288;53.046;5.668;2023-05-19T07:59:21;102956.72;;;17.37;58.20
67099;BME280;54288;53.046;5.668;2023-05-19T08:01:46;102957.75;;;17.86;58.22
67099;BME280;54288;53.046;5.668;2023-05-19T08:04:12;102959.47;;;17.87;54.29
67099;BME280;54288;53.046;5.668;2023-05-19T08:06:38;102945.91;;;17.55;53.79
67099;BME280;54288;53.046;5.668;2023-05-19T08:09:04;102940.53;;;17.59;53.37
67099;BME280;54288;53.046;5.668;2023-05-19T08:11:30;102947.03;;;17.34;52.17
67099;BME280;54288;53.046;5.668;2023-05-19T08:13:55;102933.78;;;17.39;51.03
67099;BME280;54288;53.046;5.668;2023-05-19T08:16:21;102940.69;;;17.49;51.22
67099;BME280;54288;53.046;5.668;2023-05-19T08:18:47;102937.53;;;17.23;51.63
67099;BME280;54288;53.046;5.668;2023-05-19T08:21:13;102937.53;;;17.23;51.46
67099;BME280;54288;53.046;5.668;2023-05-19T08:23:38;102936.81;;;17.09;52.85
67099;BME280;54288;53.046;5.668;2023-05-19T08:26:04;102936.66;;;17.77;50.80
67099;BME280;54288;53.046;5.668;2023-05-19T08:28:30;102938.06;;;17.47;50.35
67099;BME280;54288;53.046;5.668;2023-05-19T08:30:56;102936.84;;;17.68;50.12
67099;BME280;54288;53.046;5.668;2023-05-19T08:33:21;102945.22;;;17.94;52.11
67099;BME280;54288;53.046;5.668;2023-05-19T08:35:48;102939.91;;;17.94;50.00
67099;BME280;54288;53.046;5.668;2023-05-19T08:38:13;102936.84;;;17.68;51.46
67099;BME280;54288;53.046;5.668;2023-05-19T08:40:45;102929.31;;;17.42;51.49
67099;BME280;54288;53.046;5.668;2023-05-19T08:43:11;102925.91;;;17.33;52.02
67099;BME280;54288;53.046;5.668;2023-05-19T08:45:42;102925.47;;;18.10;51.53
67099;BME280;54288;53.046;5.668;2023-05-19T08:48:08;102913.25;;;18.03;50.00
67099;BME280;54288;53.046;5.668;2023-05-19T08:50:38;102914.84;;;18.13;51.17
67099;BME280;54288;53.046;5.668;2023-05-19T08:53:12;102911.44;;;18.05;50.43
67099;BME280;54288;53.046;5.668;2023-05-19T08:55:57;102912.84;;;18.24;50.65
67099;BME280;54288;53.046;5.668;2023-05-19T08:58:26;102907.91;;;18.06;49.23
67099;BME280;54288;53.046;5.668;2023-05-19T09:00:52;102910.84;;;17.88;49.92
67099;BME280;54288;53.046;5.668;2023-05-19T09:03:20;102914.94;;;18.07;49.19
67099;BME280;54288;53.046;5.668;2023-05-19T09:05:47;102903.69;;;17.94;49.34
67099;BME280;54288;53.046;5.668;2023-05-19T09:08:12;102899.34;;;18.37;49.24
67099;BME280;54288;53.046;5.668;2023-05-19T09:10:38;102906.53;;;18.31;48.36
67099;BME280;54288;53.046;5.668;2023-05-19T09:13:04;102897.91;;;17.71;48.50
67099;BME280;54288;53.046;5.668;2023-05-19T09:15:31;102900.19;;;18.39;48.65
67099;BME280;54288;53.046;5.668;2023-05-19T09:18:11;102893.59;;;18.58;47.38
67099;BME280;54288;53.046;5.668;2023-05-19T09:20:42;102895.06;;;19.11;47.48
67099;BME280;54288;53.046;5.668;2023-05-19T09:23:12;102886.50;;;19.38;46.88
67099;BME280;54288;53.046;5.668;2023-05-19T09:25:52;102894.16;;;19.50;45.06
67099;BME280;54288;53.046;5.668;2023-05-19T09:30:58;102884.41;;;19.14;44.75
67099;BME280;54288;53.046;5.668;2023-05-19T09:33:24;102890.06;;;18.97;46.42
67099;BME280;54288;53.046;5.668;2023-05-19T09:35:50;102886.22;;;18.28;47.38
67099;BME280;54288;53.046;5.668;2023-05-19T09:38:17;102894.09;;;18.34;49.20
67099;BME280;54288;53.046;5.668;2023-05-19T09:40:43;102885.69;;;18.57;47.28
67099;BME280;54288;53.046;5.668;2023-05-19T09:43:09;102876.59;;;18.67;46.88
67099;BME280;54288;53.046;5.668;2023-05-19T09:45:35;102876.31;;;19.18;46.52
67099;BME280;54288;53.046;5.668;2023-05-19T09:48:04;102889.81;;;19.08;46.72
67099;BME280;54288;53.046;5.668;2023-05-19T09:50:30;102877.28;;;19.52;44.93
67099;BME280;54288;53.046;5.668;2023-05-19T09:52:56;102880.91;;;19.82;44.27
67099;BME280;54288;53.046;5.668;2023-05-19T09:55:25;102883.84;;;19.71;41.68
67099;BME280;54288;53.046;5.668;2023-05-19T09:57:54;102876.81;;;19.35;43.01
67099;BME280;54288;53.046;5.668;2023-05-19T10:00:25;102878.84;;;19.93;43.67
67099;BME280;54288;53.046;5.668;2023-05-19T10:02:53;102859.78;;;19.44;44.66
67099;BME280;54288;53.046;5.668;2023-05-19T10:05:20;102874.19;;;19.67;43.38
67099;BME280;54288;53.046;5.668;2023-05-19T10:07:49;102866.94;;;20.07;42.67
67099;BME280;54288;53.046;5.668;2023-05-19T10:10:16;102863.72;;;19.95;42.74
67099;BME280;54288;53.046;5.668;2023-05-19T10:12:45;102873.19;;;20.37;43.59
67099;BME280;54288;53.046;5.668;2023-05-19T10:15:16;102865.78;;;20.48;43.34
67099;BME280;54288;53.046;5.668;2023-05-19T10:17:43;102859.47;;;20.21;41.91
67099;BME280;54288;53.046;5.668;2023-05-19T10:20:10;102860.78;;;20.04;43.08
67099;BME280;54288;53.046;5.668;2023-05-19T10:22:44;102854.38;;;20.12;43.53
67099;BME280;54288;53.046;5.668;2023-05-19T10:25:11;102854.72;;;19.99;42.94
67099;BME280;54288;53.046;5.668;2023-05-19T10:30:32;102849.41;;;20.31;44.34
67099;BME280;54288;53.046;5.668;2023-05-19T10:33:01;102850.53;;;20.24;42.14
67099;BME280;54288;53.046;5.668;2023-05-19T10:38:20;102846.88;;;20.57;41.96
67099;BME280;54288;53.046;5.668;2023-05-19T10:40:59;102863.47;;;19.72;42.08
67099;BME280;54288;53.046;5.668;2023-05-19T10:43:54;102848.03;;;20.18;43.56
67099;BME280;54288;53.046;5.668;2023-05-19T10:46:25;102835.84;;;20.69;41.78
67099;BME280;54288;53.046;5.668;2023-05-19T10:48:53;102843.44;;;20.53;42.42
67099;BME280;54288;53.046;5.668;2023-05-19T10:51:18;102842.44;;;20.56;41.98
67099;BME280;54288;53.046;5.668;2023-05-19T10:53:44;102834.41;;;20.86;41.91
67099;BME280;54288;53.046;5.668;2023-05-19T10:56:32;102839.13;;;20.49;41.36
67099;BME280;54288;53.046;5.668;2023-05-19T10:59:03;102834.19;;;20.94;41.47
67099;BME280;54288;53.046;5.668;2023-05-19T11:01:34;102827.94;;;20.95;41.12
67099;BME280;54288;53.046;5.668;2023-05-19T11:04:07;102826.75;;;20.76;41.41
67099;BME280;54288;53.046;5.668;2023-05-19T11:06:36;102832.25;;;20.42;42.32
67099;BME280;54288;53.046;5.668;2023-05-19T11:09:17;102830.41;;;21.01;41.16
67099;BME280;54288;53.046;5.668;2023-05-19T11:11:53;102830.94;;;21.12;39.14
67099;BME280;54288;53.046;5.668;2023-05-19T11:14:25;102825.91;;;21.03;38.95
67099;BME280;54288;53.046;5.668;2023-05-19T11:16:55;102823.63;;;21.18;39.98
67099;BME280;54288;53.046;5.668;2023-05-19T11:19:27;102831.25;;;20.74;42.30
67099;BME280;54288;53.046;5.668;2023-05-19T11:21:53;102828.19;;;20.87;40.65
67099;BME280;54288;53.046;5.668;2023-05-19T11:24:36;102820.25;;;20.84;40.49
67099;BME280;54288;53.046;5.668;2023-05-19T11:29:47;102822.41;;;20.44;39.43
67099;BME280;54288;53.046;5.668;2023-05-19T11:32:13;102819.91;;;20.40;37.86
67099;BME280;54288;53.046;5.668;2023-05-19T11:34:39;102816.19;;;20.73;38.46
67099;BME280;54288;53.046;5.668;2023-05-19T11:37:06;102820.06;;;20.63;38.19
67099;BME280;54288;53.046;5.668;2023-05-19T11:39:32;102818.78;;;20.47;37.93
67099;BME280;54288;53.046;5.668;2023-05-19T11:41:57;102815.59;;;21.20;38.58
67099;BME280;54288;53.046;5.668;2023-05-19T11:44:23;102817.88;;;21.56;36.08
67099;BME280;54288;53.046;5.668;2023-05-19T11:46:49;102805.13;;;21.14;36.65
67099;BME280;54288;53.046;5.668;2023-05-19T11:49:15;102805.63;;;20.70;36.96
67099;BME280;54288;53.046;5.668;2023-05-19T11:51:44;102811.81;;;20.43;37.17
67099;BME280;54288;53.046;5.668;2023-05-19T11:54:11;102803.97;;;20.38;38.32
67099;BME280;54288;53.046;5.668;2023-05-19T11:56:41;102814.50;;;20.70;38.56
67099;BME280;54288;53.046;5.668;2023-05-19T11:59:10;102802.94;;;20.71;38.66
67099;BME280;54288;53.046;5.668;2023-05-19T12:01:36;102803.31;;;20.88;40.72
67099;BME280;54288;53.046;5.668;2023-05-19T12:04:07;102798.28;;;21.57;39.15
67099;BME280;54288;53.046;5.668;2023-05-19T12:06:34;102807.06;;;21.35;41.03
67099;BME280;54288;53.046;5.668;2023-05-19T12:09:01;102808.63;;;21.42;39.94
67099;BME280;54288;53.046;5.668;2023-05-19T12:11:27;102801.91;;;21.04;41.38
67099;BME280;54288;53.046;5.668;2023-05-19T12:13:58;102803.63;;;21.57;41.30
67099;BME280;54288;53.046;5.668;2023-05-19T12:16:31;102804.69;;;21.00;41.19
67099;BME280;54288;53.046;5.668;2023-05-19T12:18:58;102799.78;;;20.86;41.38
67099;BME280;54288;53.046;5.668;2023-05-19T12:21:23;102804.91;;;20.94;42.34
67099;BME280;54288;53.046;5.668;2023-05-19T12:23:49;102799.38;;;21.26;41.19
67099;BME280;54288;53.046;5.668;2023-05-19T12:26:15;102805.03;;;21.43;40.25
67099;BME280;54288;53.046;5.668;2023-05-19T12:28:46;102790.94;;;21.39;40.17
67099;BME280;54288;53.046;5.668;2023-05-19T12:31:12;102805.19;;;21.12;41.18
67099;BME280;54288;53.046;5.668;2023-05-19T12:33:38;102801.81;;;20.78;41.09
67099;BME280;54288;53.046;5.668;2023-05-19T12:36:04;102800.41;;;20.96;40.78
67099;BME280;54288;53.046;5.668;2023-05-19T12:38:30;102795.66;;;21.05;39.80
67099;BME280;54288;53.046;5.668;2023-05-19T12:40:59;102793.75;;;21.09;40.71
67099;BME280;54288;53.046;5.668;2023-05-19T12:43:25;102787.22;;;20.91;41.50
67099;BME280;54288;53.046;5.668;2023-05-19T12:45:51;102776.03;;;21.32;39.62
67099;BME280;54288;53.046;5.668;2023-05-19T12:48:16;102782.38;;;21.04;40.04
67099;BME280;54288;53.046;5.668;2023-05-19T12:50:46;102772.38;;;20.83;42.42
67099;BME280;54288;53.046;5.668;2023-05-19T12:53:13;102772.78;;;21.24;40.35
67099;BME280;54288;53.046;5.668;2023-05-19T12:55:41;102770.94;;;21.00;41.22
67099;BME280;54288;53.046;5.668;2023-05-19T12:58:10;102776.16;;;21.03;39.93
67099;BME280;54288;53.046;5.668;2023-05-19T13:00:45;102779.22;;;20.91;38.72
67099;BME280;54288;53.046;5.668;2023-05-19T13:03:16;102769.47;;;20.63;39.82
67099;BME280;54288;53.046;5.668;2023-05-19T13:05:44;102776.97;;;20.78;39.48
67099;BME280;54288;53.046;5.668;2023-05-19T13:08:16;102778.16;;;20.97;38.99
67099;BME280;54288;53.046;5.668;2023-05-19T13:10:44;102763.72;;;21.04;39.79
67099;BME280;54288;53.046;5.668;2023-05-19T13:13:11;102771.47;;;21.11;40.91
67099;BME280;54288;53.046;5.668;2023-05-19T13:15:39;102774.72;;;20.64;39.63
67099;BME280;54288;53.046;5.668;2023-05-19T13:18:07;102769.31;;;20.67;41.47
67099;BME280;54288;53.046;5.668;2023-05-19T13:20:34;102775.34;;;21.01;41.03
67099;BME280;54288;53.046;5.668;2023-05-19T13:23:01;102763.44;;;20.84;40.94
67099;BME280;54288;53.046;5.668;2023-05-19T13:25:27;102764.56;;;20.77;40.68
67099;BME280;54288;53.046;5.668;2023-05-19T13:27:53;102758.06;;;20.59;41.18
67099;BME280;54288;53.046;5.668;2023-05-19T13:30:20;102754.75;;;20.79;41.64
67099;BME280;54288;53.046;5.668;2023-05-19T13:32:46;102751.97;;;21.09;43.25
67099;BME280;54288;53.046;5.668;2023-05-19T13:35:14;102751.31;;;21.03;40.85